createdAt,value
2023-01-20T00:00:20.590Z,91.50
2023-01-20T00:00:53.399Z,91.50
2023-01-20T00:01:26.020Z,91.40
2023-01-20T00:01:57.848Z,91.30
2023-01-20T00:02:30.844Z,91.20
2023-01-20T00:03:03.189Z,91.20
2023-01-20T00:03:35.086Z,91.20
2023-01-20T00:04:07.954Z,91.30
2023-01-20T00:04:40.035Z,91.60
2023-01-20T00:05:12.109Z,91.70
2023-01-20T00:05:53.527Z,91.80
2023-01-20T00:06:27.695Z,91.80
2023-01-20T00:07:00.832Z,91.70
2023-01-20T00:07:34.851Z,91.70
2023-01-20T00:08:06.734Z,91.50
2023-01-20T00:08:40.008Z,91.50
2023-01-20T00:09:15.042Z,91.40
2023-01-20T00:09:46.875Z,91.30
2023-01-20T00:10:19.871Z,91.20
2023-01-20T00:10:51.756Z,91.20
2023-01-20T00:11:24.442Z,91.10
2023-01-20T00:11:57.169Z,91.00
2023-01-20T00:12:30.664Z,90.90
2023-01-20T00:13:02.444Z,90.90
2023-01-20T00:13:35.479Z,90.80
2023-01-20T00:14:07.275Z,90.80
2023-01-20T00:14:39.162Z,90.80
2023-01-20T00:15:13.029Z,90.90
2023-01-20T00:15:44.987Z,91.00
2023-01-20T00:16:16.883Z,91.00
2023-01-20T00:16:49.720Z,91.00
2023-01-20T00:17:21.578Z,91.10
2023-01-20T00:17:53.397Z,91.20
2023-01-20T00:18:26.156Z,91.20
2023-01-20T00:18:58.531Z,91.20
2023-01-20T00:19:31.310Z,91.10
2023-01-20T00:20:03.743Z,91.10
2023-01-20T00:20:35.556Z,91.10
2023-01-20T00:21:11.315Z,91.20
2023-01-20T00:21:43.543Z,91.20
2023-01-20T00:22:15.445Z,91.40
2023-01-20T00:22:48.379Z,91.50
2023-01-20T00:23:20.195Z,91.50
2023-01-20T00:23:52.052Z,91.50
2023-01-20T00:24:25.132Z,91.30
2023-01-20T00:24:56.986Z,91.30
2023-01-20T00:25:28.843Z,91.20
2023-01-20T00:26:06.268Z,91.10
2023-01-20T00:26:38.068Z,91.10
2023-01-20T00:27:10.007Z,91.10
2023-01-20T00:27:42.796Z,91.00
2023-01-20T00:28:14.620Z,91.00
2023-01-20T00:28:47.344Z,91.00
2023-01-20T00:29:20.140Z,91.00
2023-01-20T00:29:51.993Z,91.10
2023-01-20T00:30:23.862Z,91.00
2023-01-20T00:30:55.920Z,91.00
2023-01-20T00:31:30.867Z,91.10
2023-01-20T00:32:02.725Z,91.10
2023-01-20T00:32:37.735Z,91.10
2023-01-20T00:33:10.607Z,91.30
2023-01-20T00:33:43.089Z,91.50
2023-01-20T00:34:15.753Z,91.60
2023-01-20T00:34:47.651Z,91.70
2023-01-20T00:35:20.546Z,91.60
2023-01-20T00:35:52.355Z,91.60
2023-01-20T00:36:28.025Z,91.50
2023-01-20T00:37:00.942Z,91.50
2023-01-20T00:37:33.244Z,91.60
2023-01-20T00:38:05.149Z,91.40
2023-01-20T00:38:37.975Z,91.00
2023-01-20T00:39:09.830Z,90.80
2023-01-20T00:39:41.618Z,90.70
2023-01-20T00:40:14.553Z,90.60
2023-01-20T00:40:53.891Z,90.60
2023-01-20T00:41:25.779Z,90.70
2023-01-20T00:41:58.627Z,90.70
2023-01-20T00:42:30.466Z,90.80
2023-01-20T00:43:02.331Z,90.80
2023-01-20T00:43:35.186Z,90.70
2023-01-20T00:44:07.064Z,90.50
2023-01-20T00:44:38.876Z,90.50
2023-01-20T00:45:12.788Z,90.60
2023-01-20T00:45:44.711Z,90.70
2023-01-20T00:46:17.207Z,90.90
2023-01-20T00:46:50.072Z,90.90
2023-01-20T00:47:22.062Z,91.00
2023-01-20T00:47:53.877Z,90.90
2023-01-20T00:48:26.704Z,91.00
2023-01-20T00:48:58.559Z,91.00
2023-01-20T00:49:30.370Z,91.10
2023-01-20T00:50:03.160Z,91.00
2023-01-20T00:50:34.998Z,91.00
2023-01-20T00:51:07.846Z,91.00
2023-01-20T00:51:42.140Z,91.00
2023-01-20T00:52:14.386Z,91.00
2023-01-20T00:52:46.205Z,91.00
2023-01-20T00:53:18.228Z,90.90
2023-01-20T00:53:51.041Z,90.80
2023-01-20T00:54:22.847Z,90.80
2023-01-20T00:54:54.988Z,90.80
2023-01-20T00:55:27.739Z,90.80
2023-01-20T00:55:59.787Z,90.80
2023-01-20T00:56:31.664Z,90.70
2023-01-20T00:57:04.502Z,90.60
2023-01-20T00:57:36.270Z,90.60
2023-01-20T00:58:08.069Z,90.60
2023-01-20T00:58:42.910Z,90.60
2023-01-20T00:59:14.691Z,90.60
2023-01-20T00:59:46.517Z,90.60
2023-01-20T01:00:20.094Z,90.70
2023-01-20T01:00:53.550Z,90.70
2023-01-20T01:01:25.556Z,90.70
2023-01-20T01:01:58.576Z,90.70
2023-01-20T01:02:30.545Z,90.50
2023-01-20T01:03:02.448Z,90.50
2023-01-20T01:03:34.266Z,90.40
2023-01-20T01:04:07.090Z,90.50
2023-01-20T01:04:38.896Z,90.50
2023-01-20T01:05:11.109Z,90.70
2023-01-20T01:05:45.017Z,90.80
2023-01-20T01:06:18.089Z,90.80
2023-01-20T01:06:51.329Z,90.70
2023-01-20T01:07:23.151Z,90.70
2023-01-20T01:07:55.971Z,90.70
2023-01-20T01:08:27.977Z,90.70
2023-01-20T01:09:00.714Z,90.70
2023-01-20T01:09:32.640Z,90.70
2023-01-20T01:10:05.236Z,90.70
2023-01-20T01:10:38.181Z,90.70
2023-01-20T01:11:11.642Z,90.70
2023-01-20T01:11:44.459Z,90.60
2023-01-20T01:12:16.253Z,90.50
2023-01-20T01:12:48.125Z,90.50
2023-01-20T01:13:20.873Z,90.50
2023-01-20T01:13:54.814Z,90.40
2023-01-20T01:14:26.670Z,90.40
2023-01-20T01:14:59.438Z,90.40
2023-01-20T01:15:31.390Z,90.40
2023-01-20T01:16:03.319Z,90.30
2023-01-20T01:16:36.382Z,90.40
2023-01-20T01:17:08.304Z,90.40
2023-01-20T01:17:40.116Z,90.40
2023-01-20T01:18:12.874Z,90.50
2023-01-20T01:18:44.802Z,90.60
2023-01-20T01:19:19.411Z,90.60
2023-01-20T01:19:52.270Z,90.50
2023-01-20T01:20:24.806Z,90.60
2023-01-20T01:20:57.636Z,90.70
2023-01-20T01:21:29.514Z,90.80
2023-01-20T01:22:02.704Z,90.90
2023-01-20T01:22:35.510Z,91.10
2023-01-20T01:23:07.314Z,91.20
2023-01-20T01:23:40.112Z,91.20
2023-01-20T01:24:11.948Z,91.40
2023-01-20T01:24:44.285Z,91.40
2023-01-20T01:25:17.351Z,91.40
2023-01-20T01:25:49.204Z,91.30
2023-01-20T01:26:21.319Z,91.30
2023-01-20T01:26:54.722Z,91.20
2023-01-20T01:27:28.063Z,91.10
2023-01-20T01:27:59.893Z,91.20
2023-01-20T01:28:32.793Z,91.20
2023-01-20T01:29:04.599Z,91.20
2023-01-20T01:29:36.542Z,91.20
2023-01-20T01:30:10.491Z,91.30
2023-01-20T01:30:42.360Z,91.40
2023-01-20T01:31:15.310Z,91.50
2023-01-20T01:31:48.099Z,91.70
2023-01-20T01:32:20.494Z,91.90
2023-01-20T01:32:52.308Z,92.10
2023-01-20T01:33:25.145Z,92.30
2023-01-20T01:33:57.019Z,92.40
2023-01-20T01:34:28.850Z,92.30
2023-01-20T01:35:01.611Z,92.20
2023-01-20T01:35:33.426Z,92.10
2023-01-20T01:36:08.348Z,91.80
2023-01-20T01:36:41.122Z,91.70
2023-01-20T01:37:14.593Z,91.80
2023-01-20T01:37:46.393Z,91.90
2023-01-20T01:38:19.174Z,92.00
2023-01-20T01:38:57.877Z,92.10
2023-01-20T01:39:30.935Z,92.10
2023-01-20T01:40:03.840Z,92.20
2023-01-20T01:40:35.708Z,92.20
2023-01-20T01:41:07.704Z,92.20
2023-01-20T01:41:40.515Z,91.90
2023-01-20T01:42:13.240Z,91.80
2023-01-20T01:42:45.065Z,91.60
2023-01-20T01:43:23.507Z,91.50
2023-01-20T01:44:05.506Z,91.40
2023-01-20T01:44:39.301Z,91.40
2023-01-20T01:45:27.806Z,91.40
2023-01-20T01:45:59.973Z,91.40
2023-01-20T01:46:32.358Z,91.40
2023-01-20T01:47:05.158Z,91.40
2023-01-20T01:47:38.771Z,91.70
2023-01-20T01:48:10.910Z,91.80
2023-01-20T01:48:46.340Z,91.80
2023-01-20T01:49:21.192Z,91.80
2023-01-20T01:49:53.017Z,91.70
2023-01-20T01:50:30.129Z,91.70
2023-01-20T01:51:07.024Z,91.60
2023-01-20T01:51:42.565Z,91.60
2023-01-20T01:52:16.097Z,91.50
2023-01-20T01:52:53.299Z,91.40
2023-01-20T01:53:26.902Z,91.30
2023-01-20T01:54:03.876Z,91.00
2023-01-20T01:54:37.832Z,90.90
2023-01-20T01:55:10.240Z,91.00
2023-01-20T01:55:46.575Z,91.00
2023-01-20T01:56:18.403Z,91.00
2023-01-20T01:56:52.529Z,91.10
2023-01-20T01:57:24.933Z,91.10
2023-01-20T01:57:58.423Z,91.10
2023-01-20T01:58:35.481Z,91.10
2023-01-20T01:59:08.111Z,91.10
2023-01-20T01:59:40.079Z,91.20
2023-01-20T02:00:13.626Z,91.30
2023-01-20T02:00:46.615Z,91.30
2023-01-20T02:01:18.973Z,91.40
2023-01-20T02:01:53.437Z,91.40
2023-01-20T02:02:25.619Z,91.50
2023-01-20T02:02:58.370Z,91.60
2023-01-20T02:03:39.202Z,91.70
2023-01-20T02:04:12.932Z,91.70
2023-01-20T02:04:44.800Z,91.80
2023-01-20T02:05:18.767Z,91.80
2023-01-20T02:05:52.796Z,91.90
2023-01-20T02:06:27.429Z,92.00
2023-01-20T02:07:04.283Z,92.10
2023-01-20T02:07:38.051Z,92.10
2023-01-20T02:08:10.105Z,92.20
2023-01-20T02:08:43.943Z,92.60
2023-01-20T02:09:16.290Z,92.80
2023-01-20T02:09:48.153Z,92.80
2023-01-20T02:10:20.944Z,92.80
2023-01-20T02:10:52.764Z,92.80
2023-01-20T02:11:24.842Z,93.00
2023-01-20T02:12:01.782Z,93.20
2023-01-20T02:12:33.725Z,92.90
2023-01-20T02:13:06.111Z,92.80
2023-01-20T02:13:39.292Z,92.70
2023-01-20T02:14:11.551Z,92.80
2023-01-20T02:14:47.362Z,92.80
2023-01-20T02:15:27.024Z,92.80
2023-01-20T02:16:06.476Z,92.70
2023-01-20T02:16:51.290Z,92.60
2023-01-20T02:17:28.528Z,92.50
2023-01-20T02:18:19.608Z,92.40
2023-01-20T02:19:06.443Z,92.50
2023-01-20T02:20:29.597Z,92.40
2023-01-20T02:21:32.346Z,92.40
2023-01-20T02:22:24.888Z,92.60
2023-01-20T02:23:04.409Z,92.70
2023-01-20T02:23:53.722Z,92.60
2023-01-20T02:24:51.920Z,92.50
2023-01-20T02:25:47.708Z,92.40
2023-01-20T02:26:47.129Z,92.70
2023-01-20T02:27:29.876Z,92.30
2023-01-20T02:28:31.703Z,92.10
2023-01-20T02:29:51.073Z,91.90
2023-01-20T02:30:52.691Z,91.80
2023-01-20T02:31:41.270Z,92.20
2023-01-20T02:32:25.782Z,92.40
2023-01-20T02:33:04.634Z,92.60
2023-01-20T02:33:41.061Z,92.80
2023-01-20T02:34:16.668Z,93.00
2023-01-20T02:34:55.532Z,93.10
2023-01-20T02:35:35.143Z,93.10
2023-01-20T02:36:10.250Z,93.20
2023-01-20T02:36:48.098Z,93.20
2023-01-20T02:37:25.171Z,93.10
2023-01-20T02:38:11.945Z,93.20
2023-01-20T02:38:52.480Z,93.10
2023-01-20T02:39:28.592Z,93.00
2023-01-20T02:40:16.875Z,93.10
2023-01-20T02:40:55.985Z,93.00
2023-01-20T02:41:36.289Z,93.00
2023-01-20T02:42:11.226Z,92.80
2023-01-20T02:42:47.776Z,92.70
2023-01-20T02:43:25.215Z,92.80
2023-01-20T02:44:03.826Z,93.00
2023-01-20T02:44:43.887Z,93.20
2023-01-20T02:45:22.627Z,93.30
2023-01-20T02:46:02.458Z,93.30
2023-01-20T02:46:38.385Z,93.30
2023-01-20T02:47:16.222Z,93.30
2023-01-20T02:47:57.212Z,93.40
2023-01-20T02:48:35.013Z,93.40
2023-01-20T02:49:15.222Z,93.50
2023-01-20T02:49:55.262Z,93.50
2023-01-20T02:50:32.860Z,93.50
2023-01-20T02:51:10.230Z,93.50
2023-01-20T02:51:47.729Z,93.80
2023-01-20T02:52:24.510Z,93.90
2023-01-20T02:53:00.634Z,93.80
2023-01-20T02:53:38.167Z,93.80
2023-01-20T02:54:13.618Z,93.60
2023-01-20T02:54:50.636Z,93.30
2023-01-20T02:55:27.741Z,93.20
2023-01-20T02:55:59.746Z,93.10
2023-01-20T02:56:35.200Z,93.20
2023-01-20T02:57:11.908Z,93.20
2023-01-20T02:57:46.741Z,93.20
2023-01-20T02:58:23.993Z,93.10
2023-01-20T02:59:00.228Z,93.10
2023-01-20T02:59:36.246Z,93.10
2023-01-20T03:00:16.060Z,93.20
2023-01-20T03:00:53.631Z,93.40
2023-01-20T03:01:32.097Z,93.60
2023-01-20T03:02:08.366Z,93.70
2023-01-20T03:02:41.872Z,93.80
2023-01-20T03:03:20.572Z,93.90
2023-01-20T03:03:55.607Z,94.00
2023-01-20T03:04:33.075Z,94.20
2023-01-20T03:05:09.416Z,94.40
2023-01-20T03:05:45.724Z,94.50
2023-01-20T03:06:21.708Z,94.60
2023-01-20T03:06:57.865Z,94.50
2023-01-20T03:07:32.835Z,94.50
2023-01-20T03:08:08.736Z,94.60
2023-01-20T03:08:42.390Z,94.50
2023-01-20T03:09:18.572Z,94.50
2023-01-20T03:09:53.453Z,94.40
2023-01-20T03:10:30.619Z,94.30
2023-01-20T03:11:05.117Z,94.20
2023-01-20T03:11:41.983Z,94.10
2023-01-20T03:12:22.196Z,94.10
2023-01-20T03:12:58.503Z,94.10
2023-01-20T03:13:34.387Z,94.10
2023-01-20T03:14:10.534Z,94.10
2023-01-20T03:14:42.550Z,94.10
2023-01-20T03:15:16.747Z,94.20
2023-01-20T03:15:59.332Z,94.10
2023-01-20T03:16:32.493Z,94.00
2023-01-20T03:17:04.430Z,93.90
2023-01-20T03:17:36.309Z,93.90
2023-01-20T03:18:09.130Z,93.90
2023-01-20T03:18:42.353Z,93.90
2023-01-20T03:19:15.122Z,94.00
2023-01-20T03:19:48.089Z,94.20
2023-01-20T03:20:19.992Z,94.40
2023-01-20T03:20:52.072Z,94.50
2023-01-20T03:21:25.179Z,94.70
2023-01-20T03:21:57.684Z,94.80
2023-01-20T03:22:31.218Z,94.90
2023-01-20T03:23:03.048Z,95.00
2023-01-20T03:23:38.229Z,95.00
2023-01-20T03:24:10.601Z,94.90
2023-01-20T03:24:44.085Z,94.80
2023-01-20T03:25:18.742Z,94.70
2023-01-20T03:25:51.070Z,94.80
2023-01-20T03:26:23.764Z,94.70
2023-01-20T03:26:56.713Z,94.70
2023-01-20T03:27:28.617Z,94.70
2023-01-20T03:28:00.630Z,94.90
2023-01-20T03:28:33.464Z,95.00
2023-01-20T03:29:07.314Z,95.10
2023-01-20T03:29:40.177Z,95.10
2023-01-20T03:30:13.994Z,95.10
2023-01-20T03:30:45.898Z,95.00
2023-01-20T03:31:21.787Z,94.90
2023-01-20T03:31:57.999Z,94.80
2023-01-20T03:32:31.190Z,94.60
2023-01-20T03:33:04.649Z,94.50
2023-01-20T03:33:36.671Z,94.30
2023-01-20T03:34:15.357Z,94.30
2023-01-20T03:34:47.243Z,94.20
2023-01-20T03:35:19.476Z,93.80
2023-01-20T03:35:52.255Z,93.50
2023-01-20T03:36:28.330Z,93.30
2023-01-20T03:37:00.898Z,93.10
2023-01-20T03:37:32.807Z,93.10
2023-01-20T03:38:05.644Z,93.20
2023-01-20T03:38:37.596Z,93.20
2023-01-20T03:39:09.766Z,93.40
2023-01-20T03:39:42.550Z,93.50
2023-01-20T03:40:15.424Z,93.50
2023-01-20T03:40:53.785Z,93.40
2023-01-20T03:41:35.708Z,93.40
2023-01-20T03:42:11.173Z,93.40
2023-01-20T03:42:52.579Z,93.20
2023-01-20T03:43:33.144Z,93.20
2023-01-20T03:44:12.473Z,93.30
2023-01-20T03:45:00.369Z,93.30
2023-01-20T03:45:40.118Z,93.30
2023-01-20T03:46:19.505Z,93.30
2023-01-20T03:46:57.874Z,93.50
2023-01-20T03:47:43.168Z,93.50
2023-01-20T03:48:22.887Z,93.20
2023-01-20T03:49:01.131Z,93.00
2023-01-20T03:49:44.156Z,92.80
2023-01-20T03:50:28.676Z,92.70
2023-01-20T03:51:08.455Z,92.60
2023-01-20T03:51:45.661Z,92.60
2023-01-20T03:52:47.597Z,92.70
2023-01-20T03:53:29.929Z,93.00
2023-01-20T03:54:07.900Z,93.10
2023-01-20T03:54:48.538Z,93.00
2023-01-20T03:55:25.494Z,92.90
2023-01-20T03:56:03.823Z,93.10
2023-01-20T03:56:41.902Z,93.20
2023-01-20T03:57:18.267Z,93.40
2023-01-20T03:57:56.229Z,93.70
2023-01-20T03:58:31.910Z,93.90
2023-01-20T03:59:05.812Z,94.10
2023-01-20T03:59:40.200Z,94.30
2023-01-20T04:00:13.369Z,94.40
2023-01-20T04:00:49.509Z,94.50
2023-01-20T04:01:24.980Z,94.60
2023-01-20T04:01:57.121Z,94.90
2023-01-20T04:02:29.439Z,94.60
2023-01-20T04:03:06.814Z,94.40
2023-01-20T04:03:42.842Z,94.10
2023-01-20T04:04:17.662Z,93.60
2023-01-20T04:04:53.838Z,93.30
2023-01-20T04:05:26.452Z,93.50
2023-01-20T04:05:59.949Z,93.10
2023-01-20T04:06:34.935Z,93.00
2023-01-20T04:07:10.343Z,93.10
2023-01-20T04:07:45.223Z,93.30
2023-01-20T04:08:19.613Z,93.50
2023-01-20T04:08:56.791Z,93.50
2023-01-20T04:09:33.037Z,93.60
2023-01-20T04:10:12.755Z,93.90
2023-01-20T04:10:48.510Z,94.10
2023-01-20T04:11:20.749Z,94.10
2023-01-20T04:11:53.807Z,94.30
2023-01-20T04:12:25.672Z,94.50
2023-01-20T04:12:57.551Z,94.60
2023-01-20T04:13:29.377Z,94.70
2023-01-20T04:14:02.643Z,94.70
2023-01-20T04:14:35.383Z,94.70
2023-01-20T04:15:09.217Z,94.60
2023-01-20T04:15:44.366Z,94.60
2023-01-20T04:16:18.185Z,94.70
2023-01-20T04:16:52.573Z,94.60
2023-01-20T04:17:28.561Z,94.30
2023-01-20T04:18:11.486Z,94.20
2023-01-20T04:18:46.129Z,94.20
2023-01-20T04:19:19.003Z,94.20
2023-01-20T04:19:52.224Z,94.20
2023-01-20T04:20:24.391Z,94.20
2023-01-20T04:21:01.319Z,94.10
2023-01-20T04:21:36.816Z,93.90
2023-01-20T04:22:14.322Z,93.70
2023-01-20T04:22:52.361Z,93.60
2023-01-20T04:23:29.063Z,93.50
2023-01-20T04:24:06.319Z,93.50
2023-01-20T04:24:43.661Z,93.60
2023-01-20T04:25:22.133Z,93.60
2023-01-20T04:25:54.937Z,93.80
2023-01-20T04:26:26.776Z,93.90
2023-01-20T04:26:58.569Z,94.10
2023-01-20T04:27:31.336Z,94.40
2023-01-20T04:28:03.146Z,94.70
2023-01-20T04:28:34.969Z,94.90
2023-01-20T04:29:12.651Z,95.00
2023-01-20T04:29:45.017Z,95.10
2023-01-20T04:30:17.564Z,95.20
2023-01-20T04:30:50.718Z,95.40
2023-01-20T04:31:30.581Z,95.50
2023-01-20T04:32:03.770Z,95.70
2023-01-20T04:32:36.599Z,96.00
2023-01-20T04:33:08.394Z,96.20
2023-01-20T04:33:40.274Z,96.40
2023-01-20T04:34:15.364Z,96.60
2023-01-20T04:34:47.225Z,96.90
2023-01-20T04:35:20.904Z,97.30
2023-01-20T04:35:53.741Z,97.50
2023-01-20T04:36:26.528Z,97.60
2023-01-20T04:36:58.319Z,97.70
2023-01-20T04:37:30.121Z,97.80
2023-01-20T04:38:03.013Z,97.90
2023-01-20T04:38:34.879Z,98.10
2023-01-20T04:39:06.676Z,98.10
2023-01-20T04:39:39.435Z,98.20
2023-01-20T04:40:12.285Z,98.50
2023-01-20T04:40:44.133Z,98.90
2023-01-20T04:41:16.914Z,99.00
2023-01-20T04:41:49.001Z,99.30
2023-01-20T04:42:20.832Z,99.60
2023-01-20T04:42:53.708Z,99.80
2023-01-20T04:43:25.642Z,99.90
2023-01-20T04:43:57.444Z,99.90
2023-01-20T04:44:30.248Z,99.90
2023-01-20T04:45:02.062Z,99.90
2023-01-20T04:45:33.928Z,99.90
2023-01-20T04:46:06.966Z,99.90
2023-01-20T04:46:38.973Z,99.90
2023-01-20T04:47:10.785Z,99.90
2023-01-20T04:47:43.864Z,99.90
2023-01-20T04:48:15.705Z,99.90
2023-01-20T04:48:47.535Z,99.90
2023-01-20T04:49:20.314Z,99.90
2023-01-20T04:49:52.168Z,99.90
2023-01-20T04:50:25.413Z,99.90
2023-01-20T04:50:58.209Z,99.90
2023-01-20T04:51:31.709Z,99.90
2023-01-20T04:52:03.784Z,99.90
2023-01-20T04:52:36.593Z,99.90
2023-01-20T04:53:12.314Z,99.90
2023-01-20T04:53:45.166Z,99.90
2023-01-20T04:54:16.966Z,99.90
2023-01-20T04:54:48.758Z,99.90
2023-01-20T04:55:21.803Z,99.90
2023-01-20T04:55:53.627Z,99.90
2023-01-20T04:56:26.106Z,99.90
2023-01-20T04:56:58.891Z,99.90
2023-01-20T04:57:30.749Z,99.90
2023-01-20T04:58:02.549Z,99.90
2023-01-20T04:58:35.309Z,99.90
2023-01-20T04:59:07.128Z,99.90
2023-01-20T04:59:39.009Z,99.90
2023-01-20T05:00:18.395Z,99.90
2023-01-20T05:00:50.297Z,99.90
2023-01-20T05:01:22.287Z,99.90
2023-01-20T05:01:55.158Z,99.90
2023-01-20T05:02:27.104Z,99.90
2023-01-20T05:02:59.103Z,99.90
2023-01-20T05:03:31.041Z,99.90
2023-01-20T05:04:03.880Z,99.90
2023-01-20T05:04:37.987Z,99.90
2023-01-20T05:05:10.183Z,99.90
2023-01-20T05:05:44.341Z,99.90
2023-01-20T05:06:16.813Z,99.90
2023-01-20T05:06:48.583Z,99.90
2023-01-20T05:07:21.358Z,99.90
2023-01-20T05:07:53.632Z,99.90
2023-01-20T05:08:25.440Z,99.90
2023-01-20T05:08:58.219Z,99.90
2023-01-20T05:09:30.034Z,99.90
2023-01-20T05:10:01.847Z,99.90
2023-01-20T05:10:35.140Z,99.90
2023-01-20T05:11:07.217Z,99.90
2023-01-20T05:11:39.067Z,99.90
2023-01-20T05:12:10.885Z,99.90
2023-01-20T05:12:43.669Z,99.90
2023-01-20T05:13:15.850Z,99.90
2023-01-20T05:13:47.650Z,99.90
2023-01-20T05:14:20.432Z,99.90
2023-01-20T05:14:52.258Z,99.90
2023-01-20T05:15:24.073Z,99.90
2023-01-20T05:15:56.993Z,99.90
2023-01-20T05:16:31.881Z,99.90
2023-01-20T05:17:03.685Z,99.90
2023-01-20T05:17:36.475Z,99.90
2023-01-20T05:18:08.292Z,99.90
2023-01-20T05:18:40.118Z,99.90
2023-01-20T05:19:13.119Z,99.90
2023-01-20T05:19:44.942Z,99.90
2023-01-20T05:20:18.897Z,99.90
2023-01-20T05:20:53.092Z,99.90
2023-01-20T05:21:24.965Z,99.90
2023-01-20T05:21:56.776Z,99.90
2023-01-20T05:22:29.436Z,99.90
2023-01-20T05:23:02.370Z,99.90
2023-01-20T05:23:34.223Z,99.90
2023-01-20T05:24:06.609Z,99.90
2023-01-20T05:24:39.386Z,99.90
2023-01-20T05:25:11.218Z,99.90
2023-01-20T05:25:43.066Z,99.90
2023-01-20T05:26:14.902Z,99.90
2023-01-20T05:26:47.679Z,99.90
2023-01-20T05:27:19.551Z,99.90
2023-01-20T05:27:51.336Z,99.90
2023-01-20T05:28:23.554Z,99.90
2023-01-20T05:28:56.438Z,99.90
2023-01-20T05:29:28.377Z,99.90
2023-01-20T05:30:00.187Z,99.90
2023-01-20T05:30:33.085Z,99.90
2023-01-20T05:31:05.110Z,99.90
2023-01-20T05:31:37.540Z,99.90
2023-01-20T05:32:10.407Z,99.90
2023-01-20T05:32:44.407Z,99.90
2023-01-20T05:33:17.264Z,99.90
2023-01-20T05:33:49.073Z,99.90
2023-01-20T05:34:22.066Z,99.90
2023-01-20T05:34:53.920Z,99.90
2023-01-20T05:35:25.851Z,99.90
2023-01-20T05:36:00.027Z,99.90
2023-01-20T05:36:32.717Z,99.90
2023-01-20T05:37:04.530Z,99.90
2023-01-20T05:37:37.279Z,99.90
2023-01-20T05:38:09.094Z,99.90
2023-01-20T05:38:40.900Z,99.90
2023-01-20T05:39:13.714Z,99.90
2023-01-20T05:39:45.558Z,99.90
2023-01-20T05:40:17.797Z,99.90
2023-01-20T05:40:50.577Z,99.90
2023-01-20T05:41:22.405Z,99.90
2023-01-20T05:41:54.318Z,99.90
2023-01-20T05:42:27.103Z,99.90
2023-01-20T05:42:59.668Z,99.90
2023-01-20T05:43:31.678Z,99.90
2023-01-20T05:44:04.477Z,99.90
2023-01-20T05:44:36.320Z,99.90
2023-01-20T05:45:09.235Z,99.90
2023-01-20T05:45:42.959Z,99.90
2023-01-20T05:46:15.556Z,99.90
2023-01-20T05:46:47.570Z,99.90
2023-01-20T05:47:20.354Z,99.90
2023-01-20T05:47:55.209Z,99.90
2023-01-20T05:48:27.417Z,99.90
2023-01-20T05:49:00.169Z,99.90
2023-01-20T05:49:32.051Z,99.90
2023-01-20T05:50:04.240Z,99.90
2023-01-20T05:50:37.047Z,99.90
2023-01-20T05:51:10.197Z,99.90
2023-01-20T05:51:43.001Z,99.90
2023-01-20T05:52:14.810Z,99.90
2023-01-20T05:52:48.577Z,99.90
2023-01-20T05:53:22.235Z,99.90
2023-01-20T05:53:54.052Z,99.90
2023-01-20T05:54:26.215Z,99.90
2023-01-20T05:54:58.989Z,99.90
2023-01-20T05:55:30.837Z,99.90
2023-01-20T05:56:04.591Z,99.90
2023-01-20T05:56:37.414Z,99.90
2023-01-20T05:57:09.311Z,99.90
2023-01-20T05:57:41.322Z,99.90
2023-01-20T05:58:15.299Z,99.90
2023-01-20T05:58:47.107Z,99.90
2023-01-20T05:59:18.985Z,99.90
2023-01-20T05:59:52.712Z,99.90
2023-01-20T06:00:24.690Z,99.90
2023-01-20T06:01:04.822Z,99.90
2023-01-20T06:01:37.755Z,99.90
2023-01-20T06:02:09.604Z,99.90
2023-01-20T06:02:41.963Z,99.90
2023-01-20T06:03:14.797Z,99.90
2023-01-20T06:03:46.664Z,99.90
2023-01-20T06:04:19.433Z,99.90
2023-01-20T06:04:51.250Z,99.90
2023-01-20T06:05:23.184Z,99.90
2023-01-20T06:06:00.953Z,99.90
2023-01-20T06:06:34.150Z,99.90
2023-01-20T06:07:05.967Z,99.90
2023-01-20T06:07:38.797Z,99.90
2023-01-20T06:08:10.607Z,99.90
2023-01-20T06:08:42.697Z,99.90
2023-01-20T06:09:16.012Z,99.90
2023-01-20T06:09:47.853Z,99.90
2023-01-20T06:10:19.728Z,99.90
2023-01-20T06:10:54.188Z,99.90
2023-01-20T06:11:26.113Z,99.90
2023-01-20T06:11:58.957Z,99.90
2023-01-20T06:12:30.818Z,99.90
2023-01-20T06:13:02.654Z,99.90
2023-01-20T06:13:35.970Z,99.90
2023-01-20T06:14:08.034Z,99.90
2023-01-20T06:14:39.977Z,99.90
2023-01-20T06:15:13.458Z,99.90
2023-01-20T06:15:45.591Z,99.90
2023-01-20T06:16:18.638Z,99.90
2023-01-20T06:16:51.456Z,99.90
2023-01-20T06:17:23.230Z,99.90
2023-01-20T06:17:55.581Z,99.90
2023-01-20T06:18:30.059Z,99.90
2023-01-20T06:19:01.886Z,99.90
2023-01-20T06:19:33.689Z,99.90
2023-01-20T06:20:07.069Z,99.90
2023-01-20T06:20:39.036Z,99.90
2023-01-20T06:21:10.880Z,99.90
2023-01-20T06:21:46.909Z,99.90
2023-01-20T06:22:20.202Z,99.90
2023-01-20T06:22:55.979Z,99.90
2023-01-20T06:23:28.233Z,99.90
2023-01-20T06:24:01.018Z,99.90
2023-01-20T06:24:32.801Z,99.90
2023-01-20T06:25:05.268Z,99.90
2023-01-20T06:25:38.079Z,99.90
2023-01-20T06:26:13.459Z,99.90
2023-01-20T06:26:45.357Z,99.90
2023-01-20T06:27:18.308Z,99.90
2023-01-20T06:27:50.141Z,99.90
2023-01-20T06:28:22.023Z,99.90
2023-01-20T06:28:59.586Z,99.90
2023-01-20T06:29:31.640Z,99.90
2023-01-20T06:30:05.090Z,99.90
2023-01-20T06:30:38.010Z,99.90
2023-01-20T06:31:12.952Z,99.90
2023-01-20T06:31:45.925Z,99.90
2023-01-20T06:32:17.871Z,99.90
2023-01-20T06:32:49.801Z,99.90
2023-01-20T06:33:22.605Z,99.90
2023-01-20T06:33:54.518Z,99.90
2023-01-20T06:34:27.304Z,99.90
2023-01-20T06:34:59.142Z,99.90
2023-01-20T06:35:31.904Z,99.90
2023-01-20T06:36:04.798Z,99.90
2023-01-20T06:36:37.570Z,99.90
2023-01-20T06:37:10.728Z,99.90
2023-01-20T06:37:42.559Z,99.90
2023-01-20T06:38:15.317Z,99.90
2023-01-20T06:38:50.437Z,99.90
2023-01-20T06:39:23.295Z,99.90
2023-01-20T06:39:55.204Z,99.90
2023-01-20T06:40:27.116Z,99.90
2023-01-20T06:41:01.114Z,99.90
2023-01-20T06:41:33.267Z,99.90
2023-01-20T06:42:06.837Z,99.90
2023-01-20T06:42:38.672Z,99.90
2023-01-20T06:43:10.533Z,99.90
2023-01-20T06:43:43.291Z,99.90
2023-01-20T06:44:15.458Z,99.90
2023-01-20T06:44:48.297Z,99.90
2023-01-20T06:45:20.127Z,99.90
2023-01-20T06:45:52.037Z,99.90
2023-01-20T06:46:25.132Z,99.90
2023-01-20T06:46:57.894Z,99.90
2023-01-20T06:47:29.704Z,99.90
2023-01-20T06:48:02.489Z,99.90
2023-01-20T06:48:34.533Z,99.90
2023-01-20T06:49:06.344Z,99.90
2023-01-20T06:49:39.286Z,99.90
2023-01-20T06:50:11.334Z,99.90
2023-01-20T06:50:44.085Z,99.90
2023-01-20T06:51:18.008Z,99.90
2023-01-20T06:51:49.779Z,99.90
2023-01-20T06:52:24.406Z,99.90
2023-01-20T06:52:56.786Z,99.90
2023-01-20T06:53:29.902Z,99.90
2023-01-20T06:54:01.827Z,99.90
2023-01-20T06:54:36.510Z,99.90
2023-01-20T06:55:09.377Z,99.90
2023-01-20T06:55:41.427Z,99.90
2023-01-20T06:56:15.991Z,99.90
2023-01-20T06:56:47.937Z,99.90
2023-01-20T06:57:19.762Z,99.90
2023-01-20T06:57:52.618Z,99.90
2023-01-20T06:58:25.207Z,99.90
2023-01-20T06:58:58.009Z,99.90
2023-01-20T06:59:29.974Z,99.90
2023-01-20T07:00:02.944Z,99.90
2023-01-20T07:00:34.837Z,99.90
2023-01-20T07:01:10.073Z,99.90
2023-01-20T07:01:42.989Z,99.90
2023-01-20T07:02:15.064Z,99.90
2023-01-20T07:02:49.133Z,99.90
2023-01-20T07:03:21.933Z,99.90
2023-01-20T07:03:54.327Z,99.90
2023-01-20T07:04:26.125Z,99.90
2023-01-20T07:04:59.910Z,99.90
2023-01-20T07:05:31.910Z,99.90
2023-01-20T07:06:05.710Z,99.90
2023-01-20T07:06:40.209Z,99.90
2023-01-20T07:07:12.672Z,99.90
2023-01-20T07:07:46.178Z,99.90
2023-01-20T07:08:18.920Z,99.90
2023-01-20T07:08:51.002Z,99.90
2023-01-20T07:09:23.789Z,99.90
2023-01-20T07:09:55.651Z,99.90
2023-01-20T07:10:27.470Z,99.90
2023-01-20T07:11:00.807Z,99.90
2023-01-20T07:11:32.677Z,99.90
2023-01-20T07:12:05.555Z,99.90
2023-01-20T07:12:37.365Z,99.90
2023-01-20T07:13:09.134Z,99.90
2023-01-20T07:13:42.035Z,99.90
2023-01-20T07:14:13.854Z,99.90
2023-01-20T07:14:46.609Z,99.90
2023-01-20T07:15:18.489Z,99.90
2023-01-20T07:15:50.376Z,99.90
2023-01-20T07:16:23.159Z,99.90
2023-01-20T07:16:54.959Z,99.90
2023-01-20T07:17:26.743Z,99.90
2023-01-20T07:17:59.495Z,99.90
2023-01-20T07:18:31.373Z,99.90
2023-01-20T07:19:04.198Z,99.90
2023-01-20T07:19:35.993Z,99.90
2023-01-20T07:20:10.034Z,99.90